首页
METAR-TAF:

METAR-TAF

机场 :

Al Wajh, 沙特阿拉伯

纬度: 26-12N, 经度: 036-28E, 海拔: 20米

当前天气观测

该预报发布于49分钟前的10:00 UTC
风速15节,风向西转西北
温度 30°C
湿度 59%
气压 1009 hPa
能见度10公里或以上
1500米以下无云,无积雨云

METAR: OEWJ 301000Z 29015KT CAVOK 30/21 Q1009 NOSIG

时间: 13:49 (10:49 UTC)

预报

该预报发布于11小时和49分钟前的23:00 UTC
预报有效从30日的 00点(UTC)到 31日的 06点(UTC)
风速8节,风向西北
能見度: 7000
成为
从 30日的 06点(UTC)到 30日的 08点(UTC)
风速20节,风向西北
几率 30% :
短暂存在
从 30日的 09点(UTC)到 30日的 16点(UTC)
能見度: 3000
高吹尘
成为
从 30日的 18点(UTC)到 30日的 20点(UTC)
风速8节,风向

TAF: OEWJ 292300Z 3000/3106 32008KT 7000 NSC BECMG 3006/3008 31020KT PROB30 TEMPO 3009/3016 3000 BLDU BECMG 3018/3020 36008KT

超过4000个机场的气象观测和天气预报(METAR&TAF报告)。

可查询的气象台以黄色和红色小点在地图上表示。

将鼠标移到小点上方,可查看气象台名称。

然后点击查看天气观测和预报。

如需切换地图:点击带黑十字的绿色按钮放大地图;点击带横线的绿色按钮缩小地图;或者点击绿色箭头查看邻近地区的地图。


METAR-TAF: